createdAt,value
2019-05-19T00:01:33.218Z,87.53
2019-05-19T00:04:01.695Z,101.27
2019-05-19T00:06:30.264Z,102.60
2019-05-19T00:08:58.725Z,99.83
2019-05-19T00:11:27.198Z,94.97
2019-05-19T00:13:55.726Z,96.17
2019-05-19T00:16:24.272Z,106.47
2019-05-19T00:18:52.711Z,90.10
2019-05-19T00:21:21.195Z,88.97
2019-05-19T00:27:30.713Z,87.50
2019-05-19T00:29:59.181Z,83.47
2019-05-19T00:32:27.687Z,78.57
2019-05-19T00:34:56.150Z,72.53
2019-05-19T00:37:24.635Z,71.30
2019-05-19T00:39:53.078Z,67.13
2019-05-19T00:42:21.553Z,61.57
2019-05-19T00:44:50.048Z,53.27
2019-05-19T00:47:18.582Z,63.77
2019-05-19T00:49:47.217Z,59.80
2019-05-19T00:52:15.681Z,55.87
2019-05-19T00:54:44.169Z,55.13
2019-05-19T00:57:13.125Z,54.33
2019-05-19T00:59:42.369Z,53.63
2019-05-19T01:02:10.909Z,47.90
2019-05-19T01:04:39.379Z,53.00
2019-05-19T01:07:07.901Z,57.77
2019-05-19T01:09:36.391Z,50.87
2019-05-19T01:12:04.990Z,48.00
2019-05-19T01:14:33.473Z,45.87
2019-05-19T01:17:02.205Z,43.53
2019-05-19T01:19:31.293Z,46.07
2019-05-19T01:22:01.770Z,46.43
2019-05-19T01:24:30.242Z,45.07
2019-05-19T01:30:27.816Z,39.43
2019-05-19T01:32:57.470Z,45.03
2019-05-19T01:35:25.952Z,44.83
2019-05-19T01:37:54.408Z,48.70
2019-05-19T01:40:22.886Z,43.53
2019-05-19T01:42:51.674Z,79.07
2019-05-19T01:45:21.372Z,52.30
2019-05-19T01:47:49.848Z,62.47
2019-05-19T01:50:19.345Z,52.63
2019-05-19T01:52:47.815Z,40.17
2019-05-19T01:55:16.452Z,38.73
2019-05-19T01:57:44.921Z,42.20
2019-05-19T02:00:13.653Z,44.33
2019-05-19T02:02:42.204Z,47.20
2019-05-19T02:05:10.694Z,50.77
2019-05-19T02:07:39.249Z,44.00
2019-05-19T02:10:08.988Z,42.33
2019-05-19T02:12:37.440Z,45.20
2019-05-19T02:15:07.241Z,42.53
2019-05-19T02:17:37.836Z,44.80
2019-05-19T02:20:09.040Z,40.73
2019-05-19T02:22:37.522Z,40.77
2019-05-19T02:28:35.194Z,37.63
2019-05-19T02:31:04.425Z,45.27
2019-05-19T02:33:35.662Z,37.73
2019-05-19T02:36:03.173Z,45.30
2019-05-19T02:38:31.999Z,43.10
2019-05-19T02:41:02.863Z,44.53
2019-05-19T02:43:32.028Z,39.87
2019-05-19T02:46:01.878Z,39.50
2019-05-19T02:48:31.773Z,39.30
2019-05-19T02:51:02.108Z,46.40
2019-05-19T02:53:32.090Z,39.37
2019-05-19T02:56:02.626Z,40.93
2019-05-19T02:58:32.723Z,38.23
2019-05-19T03:01:01.303Z,38.07
2019-05-19T03:03:29.816Z,43.67
2019-05-19T03:05:58.293Z,34.77
2019-05-19T03:08:26.847Z,37.17
2019-05-19T03:10:55.592Z,33.23
2019-05-19T03:16:52.647Z,33.53
2019-05-19T03:19:21.137Z,35.93
2019-05-19T03:21:49.621Z,35.00
2019-05-19T03:24:18.108Z,36.27
2019-05-19T03:26:46.642Z,37.90
2019-05-19T03:29:16.778Z,34.37
2019-05-19T03:32:11.903Z,40.23
2019-05-19T03:34:35.307Z,37.77
2019-05-19T03:37:03.871Z,40.37
2019-05-19T03:39:32.363Z,37.33
2019-05-19T03:42:00.842Z,36.80
2019-05-19T03:44:29.319Z,36.17
2019-05-19T03:46:57.880Z,39.67
2019-05-19T03:49:26.378Z,34.13
2019-05-19T03:51:54.934Z,40.17
2019-05-19T03:54:23.420Z,33.50
2019-05-19T03:56:51.910Z,32.43
2019-05-19T03:59:20.396Z,39.73
2019-05-19T04:01:48.975Z,32.70
2019-05-19T04:04:17.465Z,33.30
2019-05-19T04:06:45.979Z,34.17
2019-05-19T04:09:17.369Z,36.03
2019-05-19T04:11:44.659Z,43.60
2019-05-19T04:17:56.220Z,42.90
2019-05-19T04:20:24.781Z,35.70
2019-05-19T04:22:53.277Z,35.83
2019-05-19T04:25:21.779Z,35.97
2019-05-19T04:27:50.256Z,33.77
2019-05-19T04:30:18.909Z,32.10
2019-05-19T04:32:47.419Z,30.70
2019-05-19T04:35:16.355Z,34.13
2019-05-19T04:37:44.906Z,29.03
2019-05-19T04:40:13.610Z,28.93
2019-05-19T04:42:42.183Z,29.80
2019-05-19T04:48:51.473Z,30.97
2019-05-19T04:51:19.947Z,32.53
2019-05-19T04:53:48.473Z,35.90
2019-05-19T04:56:19.716Z,33.13
2019-05-19T04:58:47.301Z,31.70
2019-05-19T05:01:15.863Z,34.73
2019-05-19T05:03:45.009Z,40.20
2019-05-19T05:06:13.614Z,30.00
2019-05-19T05:08:42.185Z,29.07
2019-05-19T05:11:10.646Z,38.13
2019-05-19T05:13:39.146Z,35.47
2019-05-19T05:16:07.859Z,32.13
2019-05-19T05:18:36.626Z,36.30
2019-05-19T05:21:05.173Z,39.17
2019-05-19T05:23:33.702Z,38.53
2019-05-19T05:26:02.206Z,36.20
2019-05-19T05:28:30.697Z,33.20
2019-05-19T05:30:59.193Z,37.03
2019-05-19T05:33:27.678Z,33.93
2019-05-19T05:35:56.159Z,34.00
2019-05-19T05:38:24.630Z,31.57
2019-05-19T05:40:53.132Z,34.50
2019-05-19T05:43:21.659Z,33.43
2019-05-19T05:45:50.152Z,26.67
2019-05-19T05:48:18.700Z,31.33
2019-05-19T05:50:47.197Z,44.70
2019-05-19T05:53:15.658Z,30.20
2019-05-19T05:55:44.150Z,28.60
2019-05-19T05:58:12.714Z,29.43
2019-05-19T06:00:41.203Z,26.67
2019-05-19T06:03:09.779Z,30.37
2019-05-19T06:05:38.272Z,24.47
2019-05-19T06:08:06.855Z,24.70
2019-05-19T06:10:35.437Z,24.93
2019-05-19T06:13:03.995Z,23.87
2019-05-19T06:15:32.612Z,23.90
2019-05-19T06:18:01.079Z,23.37
2019-05-19T06:20:29.554Z,22.13
2019-05-19T06:22:58.068Z,21.17
2019-05-19T06:25:26.605Z,20.97
2019-05-19T06:27:55.181Z,20.70
2019-05-19T06:30:23.815Z,22.33
2019-05-19T06:32:54.042Z,22.47
2019-05-19T06:35:22.683Z,21.93
2019-05-19T06:37:51.250Z,22.97
2019-05-19T06:40:20.497Z,20.83
2019-05-19T06:42:49.825Z,21.97
2019-05-19T06:45:18.434Z,22.23
2019-05-19T06:47:48.539Z,21.00
2019-05-19T06:50:18.655Z,19.33
2019-05-19T06:53:13.918Z,18.90
2019-05-19T06:55:41.746Z,18.70
2019-05-19T06:58:18.017Z,17.50
2019-05-19T07:10:25.970Z,19.90
2019-05-19T07:13:06.218Z,18.70
2019-05-19T07:15:34.827Z,18.90
2019-05-19T07:18:03.575Z,17.80
2019-05-19T07:20:32.119Z,18.43
2019-05-19T07:23:00.619Z,18.17
2019-05-19T07:25:29.082Z,18.53
2019-05-19T07:27:57.575Z,18.07
2019-05-19T07:30:26.124Z,17.20
2019-05-19T07:32:54.657Z,18.77
2019-05-19T07:35:23.214Z,18.43
2019-05-19T07:37:51.785Z,18.27
2019-05-19T07:40:20.339Z,19.90
2019-05-19T07:42:48.820Z,17.43
2019-05-19T07:45:17.644Z,20.37
2019-05-19T07:47:46.104Z,19.07
2019-05-19T07:50:14.743Z,19.20
2019-05-19T07:52:43.283Z,19.37
2019-05-19T07:55:11.858Z,19.50
2019-05-19T07:57:40.485Z,19.17
2019-05-19T08:00:09.501Z,19.57
2019-05-19T08:02:38.010Z,20.17
2019-05-19T08:05:06.931Z,20.93
2019-05-19T08:07:35.522Z,20.57
2019-05-19T08:10:06.662Z,20.20
2019-05-19T08:12:35.240Z,18.77
2019-05-19T08:15:06.146Z,19.20
2019-05-19T08:17:34.745Z,18.17
2019-05-19T08:20:05.337Z,19.07
2019-05-19T08:22:34.008Z,19.03
2019-05-19T08:25:02.971Z,18.97
2019-05-19T08:27:31.431Z,19.07
2019-05-19T08:29:59.921Z,17.67
2019-05-19T08:32:28.383Z,33.67
2019-05-19T08:34:56.942Z,18.47
2019-05-19T08:37:25.418Z,23.47
2019-05-19T08:39:53.974Z,25.90
2019-05-19T08:42:22.436Z,19.13
2019-05-19T08:44:51.034Z,21.57
2019-05-19T08:47:19.586Z,20.97
2019-05-19T08:49:48.045Z,20.23
2019-05-19T08:52:16.866Z,18.40
2019-05-19T08:54:45.467Z,18.00
2019-05-19T08:57:13.977Z,17.33
2019-05-19T09:00:01.902Z,18.13
2019-05-19T09:02:44.277Z,17.10
2019-05-19T09:05:25.220Z,16.93
2019-05-19T09:08:05.931Z,16.47
2019-05-19T09:10:46.845Z,16.30
2019-05-19T09:13:27.549Z,16.47
2019-05-19T09:16:08.341Z,17.57
2019-05-19T09:18:49.210Z,16.40
2019-05-19T09:21:29.956Z,17.23
2019-05-19T09:24:10.673Z,16.80
2019-05-19T09:26:51.494Z,16.53
2019-05-19T09:29:32.380Z,15.87
2019-05-19T09:32:13.224Z,16.50
2019-05-19T09:34:53.665Z,16.87
2019-05-19T09:37:34.235Z,15.53
2019-05-19T09:40:14.853Z,15.60
2019-05-19T09:42:55.271Z,15.30
2019-05-19T09:45:36.068Z,15.17
2019-05-19T09:48:16.593Z,15.03
2019-05-19T09:50:57.201Z,16.00
2019-05-19T09:53:38.035Z,15.13
2019-05-19T09:56:18.764Z,14.97
2019-05-19T09:58:59.517Z,14.60
2019-05-19T10:01:40.560Z,14.50
2019-05-19T10:04:21.122Z,14.30
2019-05-19T10:07:02.494Z,13.57
2019-05-19T10:09:48.179Z,13.77
2019-05-19T10:12:29.041Z,12.40
2019-05-19T10:15:09.828Z,12.63
2019-05-19T10:17:50.528Z,14.20
2019-05-19T10:20:31.618Z,12.47
2019-05-19T10:23:12.140Z,13.57
2019-05-19T10:25:52.696Z,12.17
2019-05-19T10:28:33.055Z,12.93
2019-05-19T10:31:14.008Z,12.97
2019-05-19T10:33:55.037Z,12.37
2019-05-19T10:36:35.657Z,12.47
2019-05-19T10:39:16.204Z,12.53
2019-05-19T10:41:57.201Z,11.83
2019-05-19T10:44:37.841Z,11.57
2019-05-19T10:47:18.608Z,12.00
2019-05-19T10:49:59.531Z,11.23
2019-05-19T10:52:40.437Z,9.93
2019-05-19T10:55:34.079Z,10.50
2019-05-19T10:58:04.196Z,11.45
2019-05-19T11:00:44.535Z,11.38
2019-05-19T11:03:25.353Z,11.95
2019-05-19T11:06:06.593Z,11.40
2019-05-19T11:08:46.833Z,12.35
2019-05-19T11:11:27.745Z,12.25
2019-05-19T11:14:07.989Z,9.95
2019-05-19T11:16:48.676Z,11.55
2019-05-19T11:19:29.568Z,10.80
2019-05-19T11:22:10.357Z,10.60
2019-05-19T11:24:51.078Z,11.40
2019-05-19T11:27:32.355Z,11.15
2019-05-19T11:30:13.025Z,10.00
2019-05-19T11:32:53.444Z,9.50
2019-05-19T11:35:34.351Z,10.80
2019-05-19T11:38:15.037Z,9.83
2019-05-19T11:40:56.090Z,9.90
2019-05-19T11:43:37.087Z,9.30
2019-05-19T11:46:17.493Z,8.90
2019-05-19T11:48:58.152Z,11.05
2019-05-19T11:51:38.615Z,10.93
2019-05-19T11:54:19.650Z,12.43
2019-05-19T11:57:00.650Z,11.93
2019-05-19T11:59:41.354Z,10.15
2019-05-19T12:02:21.923Z,11.45
2019-05-19T12:05:02.723Z,10.68
2019-05-19T12:07:43.543Z,12.18
2019-05-19T12:10:24.453Z,9.80
2019-05-19T12:13:05.133Z,10.30
2019-05-19T12:15:46.098Z,11.57
2019-05-19T12:18:26.867Z,10.65
2019-05-19T12:21:07.725Z,11.05
2019-05-19T12:23:48.421Z,11.05
2019-05-19T12:26:29.081Z,10.35
2019-05-19T12:29:09.484Z,10.13
2019-05-19T12:31:50.218Z,11.22
2019-05-19T12:34:31.046Z,10.53
2019-05-19T12:36:59.813Z,10.53
2019-05-19T12:39:47.698Z,10.72
2019-05-19T12:42:35.452Z,11.93
2019-05-19T12:45:23.306Z,9.78
2019-05-19T12:48:11.130Z,10.48
2019-05-19T12:50:58.952Z,10.03
2019-05-19T12:53:46.723Z,9.28
2019-05-19T12:56:39.725Z,13.72
2019-05-19T12:59:24.060Z,10.60
2019-05-19T13:02:11.825Z,11.05
2019-05-19T13:05:04.928Z,10.95
2019-05-19T13:07:49.148Z,11.75
2019-05-19T13:10:36.943Z,18.45
2019-05-19T13:13:18.001Z,12.58
2019-05-19T13:15:46.513Z,12.80
2019-05-19T13:18:26.725Z,13.60
2019-05-19T13:21:07.569Z,12.60
2019-05-19T13:23:48.477Z,12.73
2019-05-19T13:26:28.732Z,19.00
2019-05-19T13:29:09.282Z,12.78
2019-05-19T13:31:49.902Z,11.68
2019-05-19T13:34:30.876Z,10.63
2019-05-19T13:37:11.589Z,11.60
2019-05-19T13:39:52.734Z,10.32
2019-05-19T13:42:33.363Z,9.93
2019-05-19T13:45:14.193Z,10.25
2019-05-19T13:47:55.062Z,10.43
2019-05-19T13:50:35.814Z,9.98
2019-05-19T13:53:16.789Z,10.28
2019-05-19T13:55:57.757Z,10.65
2019-05-19T13:58:38.405Z,10.40
2019-05-19T14:01:28.329Z,10.18
2019-05-19T14:04:01.705Z,10.80
2019-05-19T14:06:42.762Z,10.65
2019-05-19T14:09:23.513Z,10.98
2019-05-19T14:12:04.281Z,11.20
2019-05-19T14:14:45.166Z,9.65
2019-05-19T14:17:25.886Z,9.88
2019-05-19T14:20:06.621Z,10.03
2019-05-19T14:22:47.350Z,11.10
2019-05-19T14:25:28.404Z,8.78
2019-05-19T14:28:09.072Z,9.35
2019-05-19T14:30:50.057Z,10.40
2019-05-19T14:33:18.626Z,11.18
2019-05-19T14:36:06.381Z,9.70
2019-05-19T14:39:13.423Z,11.05
2019-05-19T14:45:09.853Z,10.05
2019-05-19T14:47:58.051Z,10.82
2019-05-19T14:50:45.849Z,11.65
2019-05-19T14:53:33.621Z,13.15
2019-05-19T14:56:21.757Z,13.00
2019-05-19T14:59:09.516Z,10.13
2019-05-19T15:01:57.312Z,11.93
2019-05-19T15:04:27.509Z,12.28
2019-05-19T15:06:56.020Z,13.03
2019-05-19T15:09:24.503Z,13.22
2019-05-19T15:11:53.061Z,11.85
2019-05-19T15:14:21.604Z,12.03
2019-05-19T15:16:50.152Z,12.83
2019-05-19T15:19:18.613Z,13.00
2019-05-19T15:21:48.421Z,11.77
2019-05-19T15:24:17.052Z,12.90
2019-05-19T15:26:45.664Z,13.13
2019-05-19T15:29:14.177Z,11.87
2019-05-19T15:31:42.738Z,11.63
2019-05-19T15:34:11.251Z,12.93
2019-05-19T15:36:39.744Z,10.40
2019-05-19T15:39:08.618Z,11.33
2019-05-19T15:41:37.253Z,12.20
2019-05-19T15:47:34.137Z,11.40
2019-05-19T15:50:02.777Z,11.87
2019-05-19T15:52:31.274Z,12.27
2019-05-19T15:54:59.794Z,11.50
2019-05-19T15:57:28.784Z,11.57
2019-05-19T15:59:57.502Z,12.80
2019-05-19T16:02:26.108Z,16.73
2019-05-19T16:04:54.716Z,13.13
2019-05-19T16:10:40.527Z,13.10
2019-05-19T16:13:08.996Z,12.97
2019-05-19T16:15:37.487Z,13.30
2019-05-19T16:18:06.003Z,12.30
2019-05-19T16:20:34.516Z,11.80
2019-05-19T16:23:03.087Z,11.93
2019-05-19T16:25:31.550Z,13.03
2019-05-19T16:28:00.063Z,12.00
2019-05-19T16:30:28.556Z,12.27
2019-05-19T16:36:25.115Z,12.80
2019-05-19T16:38:54.006Z,10.60
2019-05-19T16:41:22.557Z,11.83
2019-05-19T16:43:51.107Z,10.97
2019-05-19T16:46:19.608Z,12.83
2019-05-19T16:52:16.919Z,11.17
2019-05-19T16:54:58.901Z,11.87
2019-05-19T16:57:27.460Z,10.97
2019-05-19T16:59:55.905Z,13.20
2019-05-19T17:02:24.387Z,11.73
2019-05-19T17:04:53.022Z,10.80
2019-05-19T17:07:21.564Z,11.80
2019-05-19T17:09:50.022Z,13.40
2019-05-19T17:14:57.795Z,13.10
2019-05-19T17:27:11.741Z,13.63
2019-05-19T17:29:40.513Z,15.97
2019-05-19T17:32:09.071Z,14.50
2019-05-19T17:34:40.435Z,15.00
2019-05-19T17:37:09.248Z,15.60
2019-05-19T17:39:37.745Z,15.70
2019-05-19T17:42:06.318Z,14.93
2019-05-19T17:44:34.919Z,18.40
2019-05-19T17:47:03.475Z,16.13
2019-05-19T17:49:32.042Z,16.10
2019-05-19T17:52:05.842Z,16.43
2019-05-19T17:54:34.439Z,15.23
2019-05-19T17:57:03.636Z,31.03
2019-05-19T17:59:33.400Z,16.70
2019-05-19T18:02:01.879Z,16.00
2019-05-19T18:04:30.407Z,16.67
2019-05-19T18:06:58.891Z,17.43
2019-05-19T18:09:27.347Z,16.83
2019-05-19T18:11:55.841Z,17.33
2019-05-19T18:14:24.343Z,22.57
2019-05-19T18:16:52.854Z,16.33
2019-05-19T18:19:21.342Z,17.70
2019-05-19T18:21:49.836Z,32.17
2019-05-19T18:24:18.414Z,17.20
2019-05-19T18:30:27.719Z,17.23
2019-05-19T18:32:56.207Z,17.73
2019-05-19T18:35:24.701Z,17.40
2019-05-19T18:37:53.643Z,17.90
2019-05-19T18:40:22.326Z,17.53
2019-05-19T18:42:50.864Z,16.27
2019-05-19T18:45:19.483Z,15.20
2019-05-19T18:47:52.285Z,14.97
2019-05-19T18:50:25.343Z,17.47
2019-05-19T18:52:53.987Z,15.83
2019-05-19T18:55:22.462Z,17.00
2019-05-19T18:57:51.134Z,17.50
2019-05-19T19:00:37.136Z,20.57
2019-05-19T19:03:06.416Z,18.47
2019-05-19T19:05:35.022Z,18.17
2019-05-19T19:08:03.499Z,17.70
2019-05-19T19:10:32.098Z,17.03
2019-05-19T19:13:07.344Z,18.17
2019-05-19T19:19:04.726Z,20.67
2019-05-19T19:21:33.315Z,20.43
2019-05-19T19:24:01.902Z,19.03
2019-05-19T19:26:30.375Z,20.63
2019-05-19T19:28:58.961Z,21.93
2019-05-19T19:31:27.529Z,19.00
2019-05-19T19:33:56.208Z,19.83
2019-05-19T19:36:24.693Z,19.90
2019-05-19T19:38:53.276Z,21.27
2019-05-19T19:45:00.696Z,21.30
2019-05-19T19:47:24.572Z,22.07
2019-05-19T19:49:53.179Z,24.47
2019-05-19T19:52:21.808Z,23.87
2019-05-19T19:58:19.245Z,23.90
2019-05-19T20:00:47.897Z,25.63
2019-05-19T20:03:16.455Z,29.17
2019-05-19T20:05:45.210Z,27.03
2019-05-19T20:08:13.887Z,28.57
2019-05-19T20:10:42.538Z,26.30
2019-05-19T20:13:11.092Z,27.27
2019-05-19T20:15:39.717Z,27.20
2019-05-19T20:18:08.332Z,31.60
2019-05-19T20:20:36.940Z,32.97
2019-05-19T20:23:05.642Z,34.43
2019-05-19T20:25:37.027Z,30.87
2019-05-19T20:28:04.366Z,31.10
2019-05-19T20:30:35.972Z,31.83
2019-05-19T20:33:03.167Z,33.90
2019-05-19T20:35:32.808Z,32.90
2019-05-19T20:38:01.487Z,34.87
2019-05-19T20:40:30.087Z,32.00
2019-05-19T20:42:58.665Z,32.50
2019-05-19T20:45:27.254Z,33.53
2019-05-19T20:51:36.945Z,33.80
2019-05-19T20:54:05.582Z,31.63
2019-05-19T20:56:34.069Z,34.23
2019-05-19T20:59:02.557Z,37.10
2019-05-19T21:04:47.814Z,34.57
2019-05-19T21:07:16.366Z,36.47
2019-05-19T21:09:44.848Z,35.37
2019-05-19T21:12:13.406Z,38.30
2019-05-19T21:14:41.915Z,36.07
2019-05-19T21:17:10.466Z,35.70
2019-05-19T21:23:07.074Z,34.70
2019-05-19T21:25:36.023Z,40.43
2019-05-19T21:28:04.577Z,35.00
2019-05-19T21:30:33.074Z,36.57
2019-05-19T21:33:01.552Z,35.17
2019-05-19T21:38:58.359Z,39.30
2019-05-19T21:41:26.942Z,41.90
2019-05-19T21:43:55.513Z,39.93
2019-05-19T21:46:24.067Z,41.00
2019-05-19T21:48:52.870Z,39.10
2019-05-19T21:51:21.422Z,38.03
2019-05-19T21:53:49.874Z,35.00
2019-05-19T21:56:18.445Z,38.30
2019-05-19T21:58:46.926Z,37.83
2019-05-19T22:01:23.115Z,39.50
2019-05-19T22:03:46.624Z,38.20
2019-05-19T22:06:15.850Z,40.37
2019-05-19T22:08:44.302Z,39.07
2019-05-19T22:11:14.278Z,42.17
2019-05-19T22:13:42.739Z,41.10
2019-05-19T22:16:13.252Z,41.90
2019-05-19T22:18:41.408Z,47.87
2019-05-19T22:21:09.958Z,45.80
2019-05-19T22:23:38.413Z,44.93
2019-05-19T22:29:35.624Z,49.20
2019-05-19T22:32:04.197Z,55.40
2019-05-19T22:34:32.658Z,53.77
2019-05-19T22:37:01.164Z,59.80
2019-05-19T22:39:29.630Z,56.07
2019-05-19T22:41:58.110Z,53.73
2019-05-19T22:44:26.599Z,60.23
2019-05-19T22:46:56.125Z,54.80
2019-05-19T22:49:24.567Z,54.20
2019-05-19T22:51:53.066Z,59.13
2019-05-19T22:54:21.549Z,58.90
2019-05-19T22:56:50.003Z,62.00
2019-05-19T22:59:19.978Z,60.77
2019-05-19T23:01:51.724Z,56.27
2019-05-19T23:04:19.210Z,56.87
2019-05-19T23:06:47.758Z,59.53
2019-05-19T23:09:16.402Z,55.80
2019-05-19T23:11:44.939Z,57.67
2019-05-19T23:14:13.411Z,52.00
2019-05-19T23:16:41.975Z,57.50
2019-05-19T23:19:10.494Z,54.13
2019-05-19T23:21:38.981Z,60.70
2019-05-19T23:24:07.488Z,62.40
2019-05-19T23:26:35.967Z,61.57
2019-05-19T23:29:04.520Z,62.27
2019-05-19T23:31:33.031Z,59.83
2019-05-19T23:34:03.125Z,61.97
2019-05-19T23:36:31.607Z,60.70
2019-05-19T23:39:00.095Z,60.17
2019-05-19T23:41:30.103Z,56.97
2019-05-19T23:43:58.587Z,52.23
2019-05-19T23:46:27.082Z,51.70
2019-05-19T23:48:55.580Z,49.73
2019-05-19T23:51:24.042Z,47.70
2019-05-19T23:53:52.539Z,47.80
2019-05-19T23:56:21.003Z,45.60
2019-05-19T23:58:49.532Z,46.43
